Time;durP1;ratioP1;P1;durP2;ratioP2;P2;SDS_P1;SDS_P2;PMS_P1;PMS_P2;Temp;Humidity;BMP_temperature;BMP_pressure;BME280_temperature;BME280_humidity;BME280_pressure;Samples;Min_cycle;Max_cycle;Signal;HPM_P1;HPM_P2
2022/06/17 00:00:44;;;;;;;;;;;28.80;36.20;;;;;;5077348;28;1548;-49
2022/06/17 00:03:10;;;;;;;;;;;28.80;36.20;;;;;;5077725;28;1016;-49
2022/06/17 00:05:37;;;;;;;;;;;28.80;36.10;;;;;;5076709;28;1909;-50
2022/06/17 00:08:04;;;;;;;;;;;28.70;36.10;;;;;;5077701;28;999;-49
2022/06/17 00:10:32;;;;;;;;;;;28.70;36.20;;;;;;5077677;28;932;-50
2022/06/17 00:12:59;;;;;;;;;;;28.70;35.90;;;;;;5077423;28;996;-49
2022/06/17 00:15:26;;;;;;;;;;;28.70;36.10;;;;;;5078622;28;1019;-49
2022/06/17 00:17:53;;;;;;;;;;;28.70;36.20;;;;;;5076105;28;945;-49
2022/06/17 00:20:22;;;;;;;;;;;28.70;36.20;;;;;;5076594;28;1028;-51
2022/06/17 00:22:48;;;;;;;;;;;28.70;36.20;;;;;;5076422;28;996;-50
2022/06/17 00:25:18;;;;;;;;;;;28.70;36.30;;;;;;5077211;28;1906;-50
2022/06/17 00:27:47;;;;;;;;;;;28.70;36.30;;;;;;5076675;28;956;-53
2022/06/17 00:30:15;;;;;;;;;;;28.70;36.30;;;;;;5076542;28;1030;-54
2022/06/17 00:32:42;;;;;;;;;;;28.70;36.40;;;;;;5076604;28;1040;-50
2022/06/17 00:35:09;;;;;;;;;;;28.70;36.30;;;;;;5076712;28;936;-49
2022/06/17 00:37:36;;;;;;;;;;;28.70;36.30;;;;;;5077153;28;1015;-50
2022/06/17 00:40:07;;;;;;;;;;;28.70;36.30;;;;;;5076994;28;1023;-49
2022/06/17 00:42:35;;;;;;;;;;;28.70;36.30;;;;;;5077521;28;953;-50
2022/06/17 00:45:06;;;;;;;;;;;28.70;36.30;;;;;;5078600;28;1882;-49
2022/06/17 00:47:37;;;;;;;;;;;28.70;36.30;;;;;;5078471;28;1027;-51
2022/06/17 00:50:13;;;;;;;;;;;28.70;36.30;;;;;;5078818;28;1015;-51
2022/06/17 00:52:42;;;;;;;;;;;28.70;36.30;;;;;;5077768;28;956;-49
2022/06/17 00:55:13;;;;;;;;;;;28.70;36.30;;;;;;5078583;28;1031;-50
2022/06/17 00:57:41;;;;;;;;;;;28.70;36.20;;;;;;5078731;28;976;-50
2022/06/17 01:00:17;;;;;;;;;;;28.70;36.30;;;;;;5078435;28;1037;-50
2022/06/17 01:02:46;;;;;;;;;;;28.70;36.30;;;;;;5078196;28;944;-55
2022/06/17 01:05:13;;;;;;;;;;;28.70;36.30;;;;;;5078476;28;1906;-49
2022/06/17 01:07:42;;;;;;;;;;;28.70;36.40;;;;;;5081746;28;960;-50
2022/06/17 01:10:09;;;;;;;;;;;28.70;36.30;;;;;;5080654;28;1023;-52
2022/06/17 01:12:38;;;;;;;;;;;28.70;36.40;;;;;;5081150;28;1099;-52
2022/06/17 01:15:06;;;;;;;;;;;28.70;36.30;;;;;;5081136;28;1828;-50
2022/06/17 01:17:36;;;;;;;;;;;28.70;36.40;;;;;;5081318;28;1051;-49
2022/06/17 01:20:04;;;;;;;;;;;28.70;36.40;;;;;;5082072;28;940;-49
2022/06/17 01:22:38;;;;;;;;;;;28.70;36.30;;;;;;5082023;28;1014;-53
2022/06/17 01:25:08;;;;;;;;;;;28.70;36.30;;;;;;5081467;28;1917;-49
2022/06/17 01:27:36;;;;;;;;;;;28.70;36.40;;;;;;5081703;28;912;-49
2022/06/17 01:30:03;;;;;;;;;;;28.70;36.30;;;;;;5082013;28;996;-49
2022/06/17 01:32:33;;;;;;;;;;;28.70;36.40;;;;;;5081235;28;1263;-49
2022/06/17 01:35:00;;;;;;;;;;;28.70;37.50;;;;;;5081879;28;1884;-49
2022/06/17 01:37:28;;;;;;;;;;;28.70;36.30;;;;;;5081097;28;1028;-51
2022/06/17 01:39:57;;;;;;;;;;;28.70;36.30;;;;;;5079699;28;920;-49
2022/06/17 01:42:24;;;;;;;;;;;28.70;36.40;;;;;;5080436;28;1016;-51
2022/06/17 01:44:53;;;;;;;;;;;28.70;36.30;;;;;;5080605;28;1902;-50
2022/06/17 01:47:22;;;;;;;;;;;28.70;36.30;;;;;;5080900;28;1015;-45
2022/06/17 01:49:53;;;;;;;;;;;28.70;36.30;;;;;;5080836;28;1008;-44
2022/06/17 01:52:22;;;;;;;;;;;28.60;36.20;;;;;;5079866;28;1027;-45
2022/06/17 01:54:50;;;;;;;;;;;28.70;36.30;;;;;;5079538;28;939;-47
2022/06/17 01:57:22;;;;;;;;;;;28.70;36.30;;;;;;5080192;28;981;-45
2022/06/17 01:59:50;;;;;;;;;;;28.70;36.40;;;;;;5080228;28;960;-46
2022/06/17 02:02:18;;;;;;;;;;;28.60;36.30;;;;;;5079930;28;1035;-45
2022/06/17 02:04:47;;;;;;;;;;;28.70;36.40;;;;;;5079466;28;1898;-48
2022/06/17 02:07:26;;;;;;;;;;;28.70;36.30;;;;;;5081320;28;1016;-44
2022/06/17 02:09:52;;;;;;;;;;;28.60;36.40;;;;;;5081282;28;988;-48
2022/06/17 02:12:21;;;;;;;;;;;28.60;36.40;;;;;;5081087;28;928;-46
2022/06/17 02:14:49;;;;;;;;;;;28.60;37.50;;;;;;5081525;28;1113;-45
2022/06/17 02:17:16;;;;;;;;;;;28.70;36.50;;;;;;5080568;28;948;-45
2022/06/17 02:19:44;;;;;;;;;;;28.60;36.50;;;;;;5081002;28;1005;-45
2022/06/17 02:22:11;;;;;;;;;;;28.60;36.40;;;;;;5080705;28;924;-43
2022/06/17 02:24:38;;;;;;;;;;;28.70;36.30;;;;;;5080715;28;1977;-45
2022/06/17 02:27:06;;;;;;;;;;;28.70;36.30;;;;;;5080851;28;1004;-43
2022/06/17 02:29:36;;;;;;;;;;;28.70;36.40;;;;;;5081117;28;998;-43
2022/06/17 02:32:05;;;;;;;;;;;28.60;36.30;;;;;;5080433;28;1206;-44
2022/06/17 02:34:32;;;;;;;;;;;28.70;36.30;;;;;;5080323;28;937;-42
2022/06/17 02:37:02;;;;;;;;;;;28.70;36.40;;;;;;5079474;28;1203;-44
2022/06/17 02:39:29;;;;;;;;;;;28.70;36.30;;;;;;5080285;28;1099;-43
2022/06/17 02:41:56;;;;;;;;;;;28.60;37.40;;;;;;5080553;28;1043;-50
2022/06/17 02:44:24;;;;;;;;;;;28.70;36.40;;;;;;5080971;28;1979;-49
2022/06/17 02:46:54;;;;;;;;;;;28.60;36.30;;;;;;5080198;28;2307;-50
2022/06/17 02:49:23;;;;;;;;;;;28.60;36.30;;;;;;5080320;28;952;-49
2022/06/17 02:51:50;;;;;;;;;;;28.60;36.40;;;;;;5079746;28;988;-51
2022/06/17 02:54:19;;;;;;;;;;;28.60;36.30;;;;;;5080543;28;965;-47
2022/06/17 02:56:50;;;;;;;;;;;28.60;36.30;;;;;;5080357;28;936;-51
2022/06/17 02:59:18;;;;;;;;;;;28.60;36.30;;;;;;5079571;28;1007;-42
2022/06/17 03:01:45;;;;;;;;;;;28.60;36.30;;;;;;5078947;28;948;-43
2022/06/17 03:04:15;;;;;;;;;;;28.60;36.30;;;;;;5080256;28;1007;-43
2022/06/17 03:06:45;;;;;;;;;;;28.60;36.40;;;;;;5079987;28;1969;-45
2022/06/17 03:09:17;;;;;;;;;;;28.60;36.30;;;;;;5079430;28;999;-44
2022/06/17 03:11:44;;;;;;;;;;;28.60;36.50;;;;;;5079147;28;996;-45
2022/06/17 03:14:12;;;;;;;;;;;28.60;36.30;;;;;;5078803;28;1020;-43
2022/06/17 03:16:39;;;;;;;;;;;28.60;36.30;;;;;;5079702;28;963;-43
2022/06/17 03:19:06;;;;;;;;;;;28.60;36.40;;;;;;5079794;28;987;-44
2022/06/17 03:21:35;;;;;;;;;;;28.60;36.50;;;;;;5079165;28;1003;-44
2022/06/17 03:24:04;;;;;;;;;;;28.60;37.50;;;;;;5078874;28;1022;-54
2022/06/17 03:26:33;;;;;;;;;;;28.60;36.40;;;;;;5077819;28;1969;-51
2022/06/17 03:29:02;;;;;;;;;;;28.60;36.40;;;;;;5078650;28;1062;-50
2022/06/17 03:31:32;;;;;;;;;;;28.60;36.20;;;;;;5079372;28;941;-53
2022/06/17 03:34:01;;;;;;;;;;;28.60;36.30;;;;;;5078843;28;1166;-53
2022/06/17 03:36:31;;;;;;;;;;;28.60;36.40;;;;;;5079040;28;993;-54
2022/06/17 03:39:01;;;;;;;;;;;28.60;36.40;;;;;;5079118;28;1050;-50
2022/06/17 03:41:30;;;;;;;;;;;28.60;36.30;;;;;;5079279;28;928;-50
2022/06/17 03:44:01;;;;;;;;;;;28.70;36.40;;;;;;5079296;28;1229;-55
2022/06/17 03:46:29;;;;;;;;;;;28.60;36.30;;;;;;5079028;28;1902;-44
2022/06/17 03:48:59;;;;;;;;;;;28.60;36.50;;;;;;5079100;28;949;-45
2022/06/17 03:51:26;;;;;;;;;;;28.60;36.40;;;;;;5078869;28;1773;-45
2022/06/17 03:53:54;;;;;;;;;;;28.60;36.50;;;;;;5078660;28;1036;-46
2022/06/17 03:56:24;;;;;;;;;;;28.60;36.40;;;;;;5078555;28;981;-46
2022/06/17 03:58:51;;;;;;;;;;;28.60;36.70;;;;;;5078096;28;986;-45
2022/06/17 04:01:20;;;;;;;;;;;28.60;36.50;;;;;;5078159;28;1638;-43
2022/06/17 04:03:51;;;;;;;;;;;28.60;36.60;;;;;;5077574;28;992;-42
2022/06/17 04:06:18;;;;;;;;;;;28.60;36.50;;;;;;5076630;28;1963;-42
2022/06/17 04:08:52;;;;;;;;;;;28.60;36.50;;;;;;5076725;28;1003;-43
2022/06/17 04:11:19;;;;;;;;;;;28.60;36.60;;;;;;5077157;28;957;-45
2022/06/17 04:13:48;;;;;;;;;;;28.60;37.70;;;;;;5077872;28;959;-44
2022/06/17 04:16:19;;;;;;;;;;;28.60;36.60;;;;;;5077570;28;1026;-43
2022/06/17 04:18:45;;;;;;;;;;;28.60;36.50;;;;;;5077149;28;1024;-49
2022/06/17 04:21:13;;;;;;;;;;;28.60;36.60;;;;;;5076244;28;940;-51
2022/06/17 04:23:40;;;;;;;;;;;28.60;36.60;;;;;;5076191;28;1024;-51
2022/06/17 04:26:10;;;;;;;;;;;28.60;36.60;;;;;;5077086;28;1979;-53
2022/06/17 04:28:38;;;;;;;;;;;28.60;36.70;;;;;;5076305;28;1005;-55
2022/06/17 04:31:07;;;;;;;;;;;28.60;36.70;;;;;;5076158;28;933;-51
2022/06/17 04:33:37;;;;;;;;;;;28.60;36.80;;;;;;5076050;28;1182;-52
2022/06/17 04:36:05;;;;;;;;;;;28.60;36.70;;;;;;5076162;28;956;-52
2022/06/17 04:38:33;;;;;;;;;;;28.60;36.60;;;;;;5075874;28;1802;-53
2022/06/17 04:41:01;;;;;;;;;;;28.60;36.70;;;;;;5075576;28;1007;-55
2022/06/17 04:43:31;;;;;;;;;;;28.60;36.80;;;;;;5074808;28;933;-52
2022/06/17 04:46:00;;;;;;;;;;;28.60;36.70;;;;;;5075197;28;1902;-52
2022/06/17 04:48:29;;;;;;;;;;;28.60;36.70;;;;;;5075974;28;1008;-51
2022/06/17 04:50:56;;;;;;;;;;;28.60;36.70;;;;;;5076413;28;837;-52
2022/06/17 04:53:22;;;;;;;;;;;28.60;36.70;;;;;;5075852;28;986;-50
2022/06/17 04:55:50;;;;;;;;;;;28.60;36.80;;;;;;5075955;28;936;-52
2022/06/17 04:58:17;;;;;;;;;;;28.60;36.90;;;;;;5076403;28;1027;-43
2022/06/17 05:00:46;;;;;;;;;;;28.60;37.00;;;;;;5075866;28;1107;-44
2022/06/17 05:03:12;;;;;;;;;;;28.60;36.90;;;;;;5076162;28;953;-43
2022/06/17 05:05:41;;;;;;;;;;;28.60;37.00;;;;;;5074951;28;1973;-43
2022/06/17 05:08:11;;;;;;;;;;;28.60;36.80;;;;;;5074641;28;952;-44
2022/06/17 05:10:40;;;;;;;;;;;28.60;36.90;;;;;;5076021;28;1785;-43
2022/06/17 05:13:10;;;;;;;;;;;28.60;36.90;;;;;;5075664;28;936;-44
2022/06/17 05:15:37;;;;;;;;;;;28.60;37.10;;;;;;5075127;28;1096;-44
2022/06/17 05:18:04;;;;;;;;;;;28.60;37.00;;;;;;5072898;28;1004;-45
2022/06/17 05:20:31;;;;;;;;;;;28.70;37.20;;;;;;5074280;28;944;-46
2022/06/17 05:23:01;;;;;;;;;;;28.60;36.90;;;;;;5072978;28;964;-44
2022/06/17 05:25:30;;;;;;;;;;;28.60;36.90;;;;;;5074812;28;1914;-46
2022/06/17 05:27:56;;;;;;;;;;;28.60;36.80;;;;;;5074921;28;945;-45
2022/06/17 05:30:23;;;;;;;;;;;28.70;37.00;;;;;;5075359;28;987;-45
2022/06/17 05:32:51;;;;;;;;;;;28.60;36.90;;;;;;5075328;28;1174;-46
2022/06/17 05:35:19;;;;;;;;;;;28.70;37.00;;;;;;5074879;28;972;-44
2022/06/17 05:37:46;;;;;;;;;;;28.70;37.10;;;;;;5075157;28;944;-44
2022/06/17 05:40:15;;;;;;;;;;;28.60;37.10;;;;;;5074443;28;1000;-45
2022/06/17 05:42:42;;;;;;;;;;;28.70;37.00;;;;;;5075129;28;1031;-46
2022/06/17 05:45:11;;;;;;;;;;;28.70;36.90;;;;;;5073582;28;1060;-45
2022/06/17 05:47:38;;;;;;;;;;;28.70;37.10;;;;;;5076569;28;1963;-46
2022/06/17 05:50:05;;;;;;;;;;;28.70;37.10;;;;;;5076229;28;1022;-45
2022/06/17 05:52:32;;;;;;;;;;;28.70;37.10;;;;;;5075126;28;1039;-44
2022/06/17 05:55:01;;;;;;;;;;;28.70;37.10;;;;;;5078783;28;968;-45
2022/06/17 05:57:29;;;;;;;;;;;28.70;37.10;;;;;;5079097;28;997;-45
2022/06/17 05:59:56;;;;;;;;;;;28.70;37.20;;;;;;5079583;28;980;-45
2022/06/17 06:02:23;;;;;;;;;;;28.70;37.40;;;;;;5078202;28;988;-46
2022/06/17 06:04:50;;;;;;;;;;;28.70;37.60;;;;;;5078506;28;972;-45
2022/06/17 06:07:17;;;;;;;;;;;28.70;37.50;;;;;;5077697;28;1902;-46
2022/06/17 06:09:43;;;;;;;;;;;28.70;37.50;;;;;;5078539;28;1024;-47
2022/06/17 06:12:11;;;;;;;;;;;28.70;37.80;;;;;;5078250;28;933;-44
2022/06/17 06:14:39;;;;;;;;;;;28.70;37.60;;;;;;5078997;28;976;-45
2022/06/17 06:17:06;;;;;;;;;;;28.70;37.70;;;;;;5078272;28;1007;-46
2022/06/17 06:19:33;;;;;;;;;;;28.70;37.50;;;;;;5078176;28;896;-46
2022/06/17 06:22:00;;;;;;;;;;;28.70;37.50;;;;;;5079521;28;936;-45
2022/06/17 06:24:26;;;;;;;;;;;28.70;37.50;;;;;;5078949;28;1020;-43
2022/06/17 06:26:53;;;;;;;;;;;28.70;37.30;;;;;;5077301;28;1906;-44
2022/06/17 06:29:20;;;;;;;;;;;28.70;37.50;;;;;;5077176;28;956;-45
2022/06/17 06:31:49;;;;;;;;;;;28.80;37.70;;;;;;5078284;28;1178;-44
2022/06/17 06:34:20;;;;;;;;;;;28.70;37.70;;;;;;5077196;28;1225;-44
2022/06/17 06:36:47;;;;;;;;;;;28.80;37.70;;;;;;5077040;28;929;-44
2022/06/17 06:39:13;;;;;;;;;;;28.80;37.80;;;;;;5076276;28;1044;-44
2022/06/17 06:41:40;;;;;;;;;;;28.80;37.80;;;;;;5077656;28;979;-42
2022/06/17 06:44:07;;;;;;;;;;;28.80;37.60;;;;;;5077737;28;1037;-43
2022/06/17 06:46:33;;;;;;;;;;;28.80;37.60;;;;;;5077049;28;1914;-53
2022/06/17 06:49:02;;;;;;;;;;;28.90;37.70;;;;;;5076552;28;936;-50
2022/06/17 06:51:29;;;;;;;;;;;28.80;37.70;;;;;;5076049;28;877;-49
2022/06/17 06:53:55;;;;;;;;;;;28.80;37.60;;;;;;5077086;28;1765;-49
2022/06/17 06:56:23;;;;;;;;;;;28.80;37.70;;;;;;5076532;28;857;-50
2022/06/17 06:58:50;;;;;;;;;;;28.80;37.50;;;;;;5076153;28;959;-50
2022/06/17 07:01:17;;;;;;;;;;;28.80;37.70;;;;;;5075410;28;1035;-50
2022/06/17 07:03:44;;;;;;;;;;;28.80;37.70;;;;;;5075111;28;1005;-50
2022/06/17 07:06:13;;;;;;;;;;;28.80;37.60;;;;;;5074401;28;1906;-45
2022/06/17 07:08:40;;;;;;;;;;;28.80;37.50;;;;;;5074858;28;1020;-43
2022/06/17 07:11:07;;;;;;;;;;;28.80;37.70;;;;;;5075754;28;988;-51
2022/06/17 07:13:34;;;;;;;;;;;28.80;37.90;;;;;;5075848;28;991;-49
2022/06/17 07:16:01;;;;;;;;;;;28.80;37.60;;;;;;5075168;28;972;-49
2022/06/17 07:18:29;;;;;;;;;;;28.80;37.70;;;;;;5077602;28;996;-50
2022/06/17 07:20:57;;;;;;;;;;;28.80;37.40;;;;;;5077385;28;1369;-49
2022/06/17 07:23:29;;;;;;;;;;;28.80;37.50;;;;;;5075123;28;1058;-51
2022/06/17 07:25:56;;;;;;;;;;;28.80;37.30;;;;;;5074855;28;1929;-50
2022/06/17 07:28:25;;;;;;;;;;;28.90;37.30;;;;;;5075219;28;1019;-50
2022/06/17 07:30:51;;;;;;;;;;;28.90;37.20;;;;;;5074668;28;999;-50
2022/06/17 07:33:19;;;;;;;;;;;28.90;37.10;;;;;;5074133;28;1150;-50
2022/06/17 07:35:47;;;;;;;;;;;28.90;37.10;;;;;;5075270;28;1010;-51
2022/06/17 07:41:01;;;;;;;;;;;28.90;36.90;;;;;;5075727;28;585;-55
2022/06/17 07:43:27;;;;;;;;;;;28.90;36.90;;;;;;5074799;28;1024;-50
2022/06/17 07:45:54;;;;;;;;;;;28.90;36.90;;;;;;5074763;28;924;-49
2022/06/17 07:48:21;;;;;;;;;;;28.90;36.80;;;;;;5075435;28;1910;-50
2022/06/17 07:50:48;;;;;;;;;;;28.90;36.80;;;;;;5073635;28;920;-45
2022/06/17 07:53:15;;;;;;;;;;;29.00;37.10;;;;;;5073853;28;1017;-43
2022/06/17 07:55:42;;;;;;;;;;;28.90;36.90;;;;;;5073583;28;1161;-45
2022/06/17 07:58:11;;;;;;;;;;;29.10;36.70;;;;;;5073449;28;1836;-45
2022/06/17 08:00:41;;;;;;;;;;;29.20;36.60;;;;;;5074197;28;1023;-43
2022/06/17 08:03:08;;;;;;;;;;;29.10;36.70;;;;;;5073533;28;1028;-42
2022/06/17 08:05:35;;;;;;;;;;;29.10;37.00;;;;;;5073155;28;994;-45
2022/06/17 08:08:07;;;;;;;;;;;29.00;37.20;;;;;;5072686;28;2042;-45
2022/06/17 08:10:35;;;;;;;;;;;29.10;37.10;;;;;;5071995;28;999;-46
2022/06/17 08:13:02;;;;;;;;;;;29.10;37.10;;;;;;5072595;28;949;-37
2022/06/17 08:15:30;;;;;;;;;;;29.10;37.20;;;;;;5072749;28;857;-37
2022/06/17 08:17:57;;;;;;;;;;;29.10;37.00;;;;;;5073746;28;1020;-37
2022/06/17 08:20:25;;;;;;;;;;;29.10;37.30;;;;;;5071782;28;975;-37
2022/06/17 08:22:52;;;;;;;;;;;29.10;37.30;;;;;;5073759;28;968;-38
2022/06/17 08:25:19;;;;;;;;;;;29.10;37.20;;;;;;5072575;28;949;-37
2022/06/17 08:27:47;;;;;;;;;;;29.10;37.20;;;;;;5072863;28;1977;-38
2022/06/17 08:30:14;;;;;;;;;;;29.10;37.20;;;;;;5072699;28;1066;-37
2022/06/17 08:32:51;;;;;;;;;;;29.10;37.20;;;;;;5073628;28;1243;-37
2022/06/17 08:35:21;;;;;;;;;;;29.10;37.20;;;;;;5075810;28;1177;-37
2022/06/17 08:37:49;;;;;;;;;;;29.00;37.10;;;;;;5074142;28;1032;-38
2022/06/17 08:40:30;;;;;;;;;;;29.10;37.10;;;;;;5073830;28;1047;-37
2022/06/17 08:43:00;;;;;;;;;;;29.10;37.10;;;;;;5071989;28;1351;-38
2022/06/17 08:45:32;;;;;;;;;;;29.10;37.10;;;;;;5072722;28;1063;-37
2022/06/17 08:48:08;;;;;;;;;;;29.10;37.20;;;;;;5073852;28;2007;-37
2022/06/17 08:50:53;;;;;;;;;;;29.10;37.20;;;;;;5073939;28;1059;-37
2022/06/17 08:53:30;;;;;;;;;;;29.10;37.20;;;;;;5073980;28;860;-38
2022/06/17 08:56:00;;;;;;;;;;;29.20;38.00;;;;;;5073915;28;940;-37
2022/06/17 08:58:36;;;;;;;;;;;29.10;38.30;;;;;;5071783;28;968;-37
2022/06/17 09:01:06;;;;;;;;;;;29.10;37.30;;;;;;5072748;28;900;-38
2022/06/17 09:03:43;;;;;;;;;;;29.10;37.20;;;;;;5071862;28;929;-37
2022/06/17 09:06:16;;;;;;;;;;;29.10;37.10;;;;;;5071900;28;901;-38
2022/06/17 09:08:54;;;;;;;;;;;29.10;37.20;;;;;;5071609;28;1984;-38
2022/06/17 09:11:22;;;;;;;;;;;29.10;37.10;;;;;;5071309;28;932;-38
2022/06/17 09:13:55;;;;;;;;;;;29.10;37.20;;;;;;5071962;28;1012;-38
2022/06/17 09:16:27;;;;;;;;;;;29.10;37.30;;;;;;5072536;28;965;-37
2022/06/17 09:18:59;;;;;;;;;;;29.10;37.60;;;;;;5072997;28;983;-38
2022/06/17 09:21:28;;;;;;;;;;;29.10;37.00;;;;;;5071560;28;1004;-37
2022/06/17 09:23:57;;;;;;;;;;;29.10;37.20;;;;;;5071601;28;1032;-38
2022/06/17 09:26:26;;;;;;;;;;;29.10;37.10;;;;;;5073167;28;1026;-37
2022/06/17 09:28:55;;;;;;;;;;;29.20;37.30;;;;;;5075734;28;1985;-37
2022/06/17 09:31:32;;;;;;;;;;;29.10;37.20;;;;;;5078026;28;1083;-37
2022/06/17 09:34:03;;;;;;;;;;;29.10;37.30;;;;;;5076637;28;1221;-37
2022/06/17 09:36:31;;;;;;;;;;;29.10;37.20;;;;;;5075846;28;1019;-37
2022/06/17 09:39:00;;;;;;;;;;;29.20;37.20;;;;;;5077364;28;1032;-37
2022/06/17 09:41:29;;;;;;;;;;;29.20;37.20;;;;;;5078042;28;979;-37
2022/06/17 09:43:57;;;;;;;;;;;29.20;37.10;;;;;;5079377;28;1014;-37
2022/06/17 09:46:26;;;;;;;;;;;29.20;37.10;;;;;;5079148;28;1008;-37
2022/06/17 09:48:57;;;;;;;;;;;29.20;37.00;;;;;;5078575;28;1894;-38
2022/06/17 09:51:30;;;;;;;;;;;29.20;37.00;;;;;;5078856;28;1016;-37
2022/06/17 09:54:00;;;;;;;;;;;29.10;37.10;;;;;;5076294;28;1113;-41
2022/06/17 09:56:29;;;;;;;;;;;29.20;37.40;;;;;;5079523;28;984;-39
2022/06/17 09:59:01;;;;;;;;;;;29.20;37.20;;;;;;5078754;28;1001;-39
2022/06/17 10:01:28;;;;;;;;;;;29.20;37.30;;;;;;5076246;28;1137;-39
2022/06/17 10:03:54;;;;;;;;;;;29.10;37.20;;;;;;5077687;28;1009;-39
2022/06/17 10:06:27;;;;;;;;;;;29.10;37.20;;;;;;5078320;28;1015;-39
2022/06/17 10:09:00;;;;;;;;;;;29.10;37.20;;;;;;5076036;28;1902;-39
2022/06/17 10:11:32;;;;;;;;;;;29.10;37.20;;;;;;5075866;28;980;-39
2022/06/17 10:14:01;;;;;;;;;;;29.10;37.10;;;;;;5074778;28;1018;-37
2022/06/17 10:19:25;;;;;;;;;;;29.10;37.40;;;;;;5075380;28;872;-37
2022/06/17 10:21:57;;;;;;;;;;;29.10;37.30;;;;;;5074684;28;969;-38
2022/06/17 10:24:32;;;;;;;;;;;29.10;37.30;;;;;;5074631;28;969;-37
2022/06/17 10:27:05;;;;;;;;;;;29.10;37.30;;;;;;5074485;28;1983;-37
2022/06/17 10:29:48;;;;;;;;;;;29.10;37.20;;;;;;5075055;28;995;-37
2022/06/17 10:32:14;;;;;;;;;;;29.20;37.50;;;;;;5076410;28;1028;-36
2022/06/17 10:34:43;;;;;;;;;;;29.10;37.20;;;;;;5074073;28;1876;-37
2022/06/17 10:37:11;;;;;;;;;;;29.10;37.10;;;;;;5078091;28;969;-37
2022/06/17 10:39:39;;;;;;;;;;;29.10;37.20;;;;;;5075636;28;1063;-37
2022/06/17 10:42:08;;;;;;;;;;;29.20;37.30;;;;;;5077572;28;1039;-37
2022/06/17 10:44:34;;;;;;;;;;;29.10;37.20;;;;;;5075286;28;991;-37
2022/06/17 10:47:10;;;;;;;;;;;29.20;37.30;;;;;;5074591;28;1902;-37
2022/06/17 10:49:39;;;;;;;;;;;29.20;37.40;;;;;;5076105;28;941;-37
2022/06/17 10:52:10;;;;;;;;;;;29.20;37.10;;;;;;5075258;28;944;-37
2022/06/17 10:54:38;;;;;;;;;;;29.20;37.10;;;;;;5075781;28;1013;-37
2022/06/17 10:57:08;;;;;;;;;;;29.20;37.10;;;;;;5076388;28;1024;-36
2022/06/17 10:59:36;;;;;;;;;;;29.20;37.20;;;;;;5075049;28;1426;-37
2022/06/17 11:02:03;;;;;;;;;;;29.20;37.30;;;;;;5075581;28;1011;-36
2022/06/17 11:04:30;;;;;;;;;;;29.20;37.10;;;;;;5075522;28;1003;-36
2022/06/17 11:07:00;;;;;;;;;;;29.20;37.10;;;;;;5074204;28;1036;-37
2022/06/17 11:09:29;;;;;;;;;;;29.20;37.50;;;;;;5075248;28;1918;-36
2022/06/17 11:12:06;;;;;;;;;;;29.20;37.30;;;;;;5074333;28;861;-36
2022/06/17 11:14:37;;;;;;;;;;;29.30;37.30;;;;;;5075647;28;952;-37
2022/06/17 11:17:12;;;;;;;;;;;29.20;37.20;;;;;;5074291;28;937;-36
2022/06/17 11:19:39;;;;;;;;;;;29.20;37.30;;;;;;5074574;28;952;-37
2022/06/17 11:22:06;;;;;;;;;;;29.20;37.30;;;;;;5074756;28;973;-36
2022/06/17 11:24:35;;;;;;;;;;;29.20;37.30;;;;;;5073382;28;1000;-36
2022/06/17 11:27:05;;;;;;;;;;;29.20;37.30;;;;;;5075772;28;944;-37
2022/06/17 11:29:38;;;;;;;;;;;29.20;37.40;;;;;;5074577;28;1902;-36
2022/06/17 11:32:26;;;;;;;;;;;29.20;37.30;;;;;;5073707;28;948;-37
2022/06/17 11:34:54;;;;;;;;;;;29.20;37.40;;;;;;5074054;28;985;-36
2022/06/17 11:37:24;;;;;;;;;;;29.20;37.30;;;;;;5075855;28;839;-36
2022/06/17 11:40:08;;;;;;;;;;;29.20;37.30;;;;;;5074359;28;924;-37
2022/06/17 11:42:43;;;;;;;;;;;29.20;37.40;;;;;;5074961;28;928;-36
2022/06/17 11:45:13;;;;;;;;;;;29.20;37.30;;;;;;5073618;28;991;-36
2022/06/17 11:47:45;;;;;;;;;;;29.20;37.30;;;;;;5073583;28;1902;-40
2022/06/17 11:50:14;;;;;;;;;;;29.20;37.30;;;;;;5073061;28;981;-36
2022/06/17 11:52:42;;;;;;;;;;;29.20;37.30;;;;;;5074132;28;921;-38
2022/06/17 11:55:10;;;;;;;;;;;29.20;37.30;;;;;;5074242;28;1027;-36
2022/06/17 11:57:38;;;;;;;;;;;29.30;37.30;;;;;;5074417;28;1027;-37
2022/06/17 12:00:07;;;;;;;;;;;29.20;37.30;;;;;;5074134;28;1134;-37
2022/06/17 12:02:35;;;;;;;;;;;29.20;37.40;;;;;;5074270;28;869;-37
2022/06/17 12:05:07;;;;;;;;;;;29.20;37.30;;;;;;5073524;28;1007;-37
2022/06/17 12:07:46;;;;;;;;;;;29.20;37.30;;;;;;5073496;28;1906;-37
2022/06/17 12:10:23;;;;;;;;;;;29.30;37.30;;;;;;5072778;28;995;-37
2022/06/17 12:12:51;;;;;;;;;;;29.30;37.20;;;;;;5072601;28;1050;-37
2022/06/17 12:15:24;;;;;;;;;;;29.30;37.30;;;;;;5072260;28;969;-37
2022/06/17 12:17:53;;;;;;;;;;;29.40;37.10;;;;;;5072202;28;1004;-38
2022/06/17 12:20:23;;;;;;;;;;;29.50;37.20;;;;;;5072784;28;1011;-37
2022/06/17 12:22:53;;;;;;;;;;;29.50;37.10;;;;;;5073000;28;1039;-38
2022/06/17 12:25:25;;;;;;;;;;;29.50;37.40;;;;;;5073428;28;1032;-38
2022/06/17 12:27:55;;;;;;;;;;;29.60;37.90;;;;;;5073980;28;1934;-38
2022/06/17 12:30:28;;;;;;;;;;;29.50;38.30;;;;;;5073405;28;999;-38
2022/06/17 12:32:58;;;;;;;;;;;29.50;38.30;;;;;;5073743;28;1095;-38
2022/06/17 12:35:29;;;;;;;;;;;29.40;38.50;;;;;;5073627;28;1004;-40
2022/06/17 12:38:00;;;;;;;;;;;29.40;38.40;;;;;;5075385;28;956;-39
2022/06/17 12:40:30;;;;;;;;;;;29.40;38.50;;;;;;5074704;28;1024;-40
2022/06/17 12:42:59;;;;;;;;;;;29.40;38.60;;;;;;5074043;28;1016;-41
2022/06/17 12:45:27;;;;;;;;;;;29.40;38.70;;;;;;5074443;28;1015;-42
2022/06/17 12:48:09;;;;;;;;;;;29.40;38.70;;;;;;5073113;28;1914;-38
2022/06/17 12:53:28;;;;;;;;;;;29.50;38.70;;;;;;5072922;28;1014;-38
2022/06/17 12:56:05;;;;;;;;;;;29.50;38.60;;;;;;5071523;28;916;-38
2022/06/17 12:58:48;;;;;;;;;;;29.50;38.70;;;;;;5071906;28;1009;-38
2022/06/17 13:01:18;;;;;;;;;;;29.60;38.50;;;;;;5072459;28;1761;-38
2022/06/17 13:04:06;;;;;;;;;;;29.60;38.60;;;;;;5077029;28;989;-38
2022/06/17 13:06:42;;;;;;;;;;;29.60;38.60;;;;;;5077460;28;949;-38
2022/06/17 13:09:11;;;;;;;;;;;29.70;38.50;;;;;;5078135;28;1988;-38
2022/06/17 13:11:41;;;;;;;;;;;29.70;38.10;;;;;;5076018;28;996;-38
2022/06/17 13:14:14;;;;;;;;;;;29.70;38.20;;;;;;5077492;28;1006;-39
2022/06/17 13:16:45;;;;;;;;;;;29.70;38.20;;;;;;5077601;28;1188;-39
2022/06/17 13:19:21;;;;;;;;;;;29.70;38.40;;;;;;5078240;28;1008;-38
2022/06/17 13:21:51;;;;;;;;;;;29.70;38.20;;;;;;5078343;28;952;-37
2022/06/17 13:24:22;;;;;;;;;;;29.70;38.60;;;;;;5077890;28;1373;-38
2022/06/17 13:26:52;;;;;;;;;;;29.70;38.20;;;;;;5076341;28;945;-37
2022/06/17 13:29:23;;;;;;;;;;;29.70;38.10;;;;;;5075940;28;1902;-37
2022/06/17 13:31:53;;;;;;;;;;;29.80;38.10;;;;;;5075037;28;1253;-37
2022/06/17 13:34:24;;;;;;;;;;;29.80;38.20;;;;;;5077227;28;892;-38
2022/06/17 13:36:55;;;;;;;;;;;29.80;38.20;;;;;;5078452;28;973;-38
2022/06/17 13:39:24;;;;;;;;;;;29.80;38.20;;;;;;5077577;28;993;-38
2022/06/17 13:41:55;;;;;;;;;;;29.80;38.20;;;;;;5078915;28;1008;-37
2022/06/17 13:44:27;;;;;;;;;;;29.80;38.20;;;;;;5078336;28;992;-38
2022/06/17 13:47:00;;;;;;;;;;;29.80;38.20;;;;;;5077329;28;1024;-37
2022/06/17 13:49:34;;;;;;;;;;;29.80;38.20;;;;;;5078053;28;1882;-38
2022/06/17 13:52:05;;;;;;;;;;;29.80;38.10;;;;;;5079111;28;973;-37
2022/06/17 13:54:37;;;;;;;;;;;29.80;38.10;;;;;;5079321;28;1010;-38
2022/06/17 13:57:07;;;;;;;;;;;29.90;38.00;;;;;;5078107;28;1773;-38
2022/06/17 13:59:36;;;;;;;;;;;29.90;37.90;;;;;;5079271;28;976;-37
2022/06/17 14:02:23;;;;;;;;;;;29.90;37.90;;;;;;5076816;28;937;-38
2022/06/17 14:05:09;;;;;;;;;;;29.90;37.90;;;;;;5079423;28;992;-38
2022/06/17 14:07:58;;;;;;;;;;;30.00;37.80;;;;;;5077965;28;989;-38
2022/06/17 14:10:32;;;;;;;;;;;30.00;37.80;;;;;;5074344;28;948;-37
2022/06/17 14:12:59;;;;;;;;;;;30.00;37.80;;;;;;5074839;28;916;-37
2022/06/17 14:15:28;;;;;;;;;;;30.00;37.70;;;;;;5075096;28;904;-38
2022/06/17 14:17:56;;;;;;;;;;;30.10;37.70;;;;;;5075029;28;873;-37
2022/06/17 14:20:34;;;;;;;;;;;30.10;37.50;;;;;;5076069;28;994;-37
2022/06/17 14:23:11;;;;;;;;;;;30.20;37.50;;;;;;5076648;28;944;-38
2022/06/17 14:25:46;;;;;;;;;;;30.20;37.50;;;;;;5074969;28;953;-38
2022/06/17 14:28:46;;;;;;;;;;;30.10;37.60;;;;;;5076607;28;1898;-36
2022/06/17 14:31:15;;;;;;;;;;;30.20;37.60;;;;;;4994429;28;1016;-39
2022/06/17 14:33:44;;;;;;;;;;;30.20;37.50;;;;;;4993712;28;1157;-38
2022/06/17 14:36:16;;;;;;;;;;;30.20;37.50;;;;;;5032626;28;901;-37
2022/06/17 14:38:54;;;;;;;;;;;30.20;37.80;;;;;;5075071;28;996;-39
2022/06/17 14:44:21;;;;;;;;;;;30.10;38.00;;;;;;5053472;28;1730;-38
2022/06/17 14:47:07;;;;;;;;;;;30.10;38.00;;;;;;5076234;28;1000;-38
2022/06/17 14:49:41;;;;;;;;;;;30.20;37.90;;;;;;5076205;28;1981;-39
2022/06/17 14:52:21;;;;;;;;;;;30.20;38.10;;;;;;5075154;28;870;-39
2022/06/17 14:54:57;;;;;;;;;;;30.20;38.00;;;;;;5074576;28;869;-38
2022/06/17 14:57:24;;;;;;;;;;;30.20;38.10;;;;;;5073497;28;1019;-37
2022/06/17 15:00:00;;;;;;;;;;;30.20;38.10;;;;;;5074505;28;960;-38
2022/06/17 15:02:38;;;;;;;;;;;30.20;38.40;;;;;;5073758;28;989;-38